Latest Weather Observations for Camooweal

IDQ60801

Issued at 8:02 am EST Monday 29 May 2017 (issued every 30 minutes, with the page automatically refreshed every 10 minutes)

About weather observations | Map of weather stations | Latest weather observations for QLD | Other Formats
Station Details ID: 037010 Name: CAMOOWEAL TOWNSHIP Lat: -19.92 Lon: 138.12 Height: 231.2 m
Data from the previous 72 hours. | See also: Recent months at Camooweal
Date/Time
EST
Temp
°C
App
Temp
°C
Dew
Point
°C
Rel
Hum
%
Delta-T
°C
Wind Press
QNH
hPa
Press
MSL
hPa
Rain since
9am
mm
Dir  Spd
km/h
Gust
km/h
Spd
kts
Gust
kts
29/08:00am 20.6 13.8 -1.8 22 9.7 SSE 24 37 13 20 1019.3 1018.5 0.0
29/07:30am 20.4 14.5 -0.8 24 9.3 SSE 20 30 11 16 1019.5 1018.7 0.0
29/07:00am 20.3 14.6 -0.9 24 9.3 SE 19 26 10 14 1019.3 1018.5 0.0
29/06:30am 20.4 14.7 -0.8 24 9.4 SSE 19 26 10 14 1019.1 1018.3 0.0
29/06:00am 20.5 15.1 -1.3 23 9.5 SSE 17 22 9 12 1019.0 1018.2 0.0
29/05:30am 20.6 15.1 -1.8 22 9.7 SE 17 24 9 13 1018.7 1017.9 0.0
29/05:00am 21.0 15.1 -2.1 21 10.0 SE 19 26 10 14 1018.7 1017.9 0.0
29/04:30am 21.2 15.1 -2.6 20 10.2 SE 20 26 11 14 1018.7 1017.9 0.0
29/04:00am 21.6 15.0 -3.0 19 10.5 SE 22 32 12 17 1018.7 1017.9 0.0
29/03:30am 21.5 15.6 -2.4 20 10.3 SE 19 28 10 15 1019.0 1018.2 0.0
29/03:00am 21.7 15.6 -2.2 20 10.4 SE 20 30 11 16 1018.6 1017.8 0.0
29/02:30am 22.0 15.9 -2.0 20 10.5 SSE 20 30 11 16 1018.9 1018.1 0.0
29/02:00am 22.1 16.1 -1.2 21 10.3 SSE 20 30 11 16 1019.0 1018.2 0.0
29/01:30am 22.5 15.4 -1.6 20 10.7 SSE 26 35 14 19 1018.8 1018.0 0.0
29/01:00am 22.8 15.8 -0.6 21 10.6 SSE 26 37 14 20 1018.7 1017.9 0.0
29/12:30am 23.1 16.9 -0.4 21 10.7 SSE 22 32 12 17 1018.7 1017.9 0.0
29/12:00am 23.2 17.5 0.3 22 10.5 SSE 20 28 11 15 1018.6 1017.8 0.0
 
Date/Time
EST
Temp
°C
App
Temp
°C
Dew
Point
°C
Rel
Hum
%
Delta-T
°C
Wind Press
QNH
hPa
Press
MSL
hPa
Rain since
9am
mm
Dir  Spd
km/h
Gust
km/h
Spd
kts
Gust
kts
28/11:30pm 23.3 17.7 1.0 23 10.4 SSE 20 32 11 17 1018.7 1017.9 0.0
28/11:00pm 23.2 17.6 1.5 24 10.2 SSE 20 32 11 17 1018.7 1017.9 0.0
28/10:30pm 23.4 17.1 1.7 24 10.3 SSE 24 32 13 17 1018.6 1017.8 0.0
28/10:00pm 23.9 17.6 1.5 23 10.6 SSE 24 33 13 18 1018.6 1017.8 0.0
28/09:30pm 24.8 18.6 2.3 23 10.9 SSE 24 32 13 17 1018.5 1017.7 0.0
28/09:00pm 24.8 19.9 2.3 23 10.9 S 17 26 9 14 1018.1 1017.3 0.0
28/08:30pm 24.1 19.2 2.3 24 10.5 S 17 22 9 12 1017.9 1017.1 0.0
28/08:00pm 24.3 19.5 2.5 24 10.6 S 17 20 9 11 1017.6 1016.8 0.0
28/07:30pm 25.0 20.2 2.4 23 11.0 S 17 20 9 11 1017.3 1016.5 0.0
28/07:00pm 26.2 21.3 2.2 21 11.7 S 17 20 9 11 1016.8 1015.9 0.0
28/06:30pm 27.2 22.3 2.3 20 12.3 S 17 24 9 13 1016.6 1015.7 0.0
28/06:00pm 28.7 22.5 2.1 18 13.2 S 24 30 13 16 1016.1 1015.2 0.0
28/05:30pm 29.8 24.0 2.1 17 13.8 S 22 33 12 18 1015.9 1015.0 0.0
28/05:00pm 30.7 24.8 2.0 16 14.4 S 22 33 12 18 1015.5 1014.6 0.0
28/04:30pm 31.2 25.6 1.5 15 14.8 SSE 20 32 11 17 1015.4 1014.5 0.0
28/04:00pm 31.5 24.9 1.8 15 14.9 SSE 26 37 14 20 1015.2 1014.3 0.0
28/03:30pm 32.1 26.1 1.3 14 15.4 S 22 35 12 19 1015.2 1014.3 0.0
28/03:00pm 31.5 25.5 0.8 14 15.2 SE 22 30 12 16 1015.2 1014.3 0.0
28/02:30pm 31.7 26.6 1.0 14 15.2 SSE 17 32 9 17 1015.5 1014.6 0.0
28/02:00pm 31.9 25.9 1.1 14 15.3 SSE 22 37 12 20 1015.8 1014.9 0.0
28/01:30pm 31.7 26.8 1.9 15 15.0 SE 17 26 9 14 1016.3 1015.4 0.0
28/01:00pm 31.2 25.4 2.4 16 14.6 SSE 22 33 12 18 1016.7 1015.8 0.0
28/12:30pm 30.8 25.3 2.1 16 14.4 SSE 20 32 11 17 1017.1 1016.2 0.0
28/12:00pm 30.7 25.2 2.0 16 14.4 SSE 20 33 11 18 1017.6 1016.8 0.0
28/11:30am 30.5 25.2 1.9 16 14.3 SSE 19 28 10 15 1017.9 1017.1 0.0
28/11:00am 30.2 25.2 1.6 16 14.2 SE 17 22 9 12 1018.3 1017.5 0.0
28/10:30am 29.5 24.3 0.2 15 14.1 SE 17 20 9 11 1018.6 1017.8 0.0
28/10:00am 27.6 22.4 0.4 17 13.0 ESE 17 20 9 11 1018.4 1017.6 0.0
28/09:30am 25.5 20.0 0.9 20 11.7 E 19 24 10 13 1018.5 1017.7 0.0
28/09:00am 22.7 19.4 2.2 26 9.8 E 9 17 5 9 1018.4 1017.6 0.0
28/08:52am 21.2 17.9 2.5 29 8.9 ESE 9 11 5 6 1018.4 1017.6 0.0
28/08:30am 16.1 14.7 3.5 43 5.9 CALM 0 0 0 0 1018.2 1017.4 0.0
28/08:00am 13.2 10.6 3.0 50 4.6 SW 6 7 3 4 1018.0 1017.2 0.0
28/07:30am 12.6 11.0 2.2 49 4.6 CALM 0 0 0 0 1017.6 1016.8 0.0
28/07:00am 12.2 9.1 1.2 47 4.7 S 7 9 4 5 1017.5 1016.7 0.0
28/06:30am 14.2 11.4 2.1 44 5.4 ESE 6 7 3 4 1016.9 1016.0 0.0
28/06:00am 14.1 11.1 1.7 43 5.4 SSW 7 11 4 6 1016.7 1015.8 0.0
28/05:30am 15.4 12.3 1.5 39 6.2 SE 7 11 4 6 1016.6 1015.7 0.0
28/05:00am 16.8 12.5 0.9 34 7.0 E 13 15 7 8 1016.3 1015.4 0.0
28/04:30am 14.8 11.9 2.4 43 5.6 ESE 7 9 4 5 1016.4 1015.5 0.0
28/04:00am 13.6 10.6 0.9 42 5.5 SSE 6 6 3 3 1016.5 1015.6 0.0
28/03:30am 13.4 9.9 1.4 44 5.2 SSW 9 11 5 6 1016.7 1015.8 0.0
28/03:00am 14.2 11.7 1.5 42 5.6 S 4 6 2 3 1016.8 1015.9 0.0
28/02:30am 13.6 10.7 2.8 48 4.8 SSW 7 9 4 5 1017.3 1016.5 0.0
28/02:00am 13.1 10.4 2.9 50 4.6 SSW 6 9 3 5 1017.2 1016.4 0.0
28/01:30am 16.6 13.8 1.9 37 6.6 ENE 6 9 3 5 1017.3 1016.5 0.0
28/01:00am 16.3 13.3 2.0 38 6.4 ESE 7 11 4 6 1017.4 1016.6 0.0
28/12:30am 16.5 13.7 2.2 38 6.5 SSW 6 7 3 4 1017.3 1016.5 0.0
28/12:00am 17.6 14.1 1.2 33 7.3 SSW 9 9 5 5 1017.4 1016.6 0.0
 
Date/Time
EST
Temp
°C
App
Temp
°C
Dew
Point
°C
Rel
Hum
%
Delta-T
°C
Wind Press
QNH
hPa
Press
MSL
hPa
Rain since
9am
mm
Dir  Spd
km/h
Gust
km/h
Spd
kts
Gust
kts
27/11:30pm 19.1 16.6 1.6 31 8.0 SSE 4 7 2 4 1017.6 1016.8 0.0
27/11:00pm 19.6 16.7 1.6 30 8.3 S 6 7 3 4 1017.5 1016.7 0.0
27/10:30pm 20.0 16.5 1.4 29 8.6 SSE 9 13 5 7 1017.4 1016.6 0.0
27/10:00pm 20.2 16.3 1.1 28 8.7 SSE 11 13 6 7 1017.5 1016.7 0.0
27/09:30pm 20.8 17.0 1.6 28 8.9 SSE 11 13 6 7 1017.4 1016.6 0.0
27/09:00pm 20.8 17.4 2.1 29 8.8 SSE 9 11 5 6 1017.3 1016.5 0.0
27/08:30pm 20.4 17.0 1.8 29 8.6 S 9 11 5 6 1017.0 1016.1 0.0
27/08:00pm 22.5 19.4 1.5 25 9.8 S 7 9 4 5 1016.9 1016.0 0.0
27/07:30pm 23.5 19.9 0.6 22 10.7 SSE 9 9 5 5 1016.5 1015.6 0.0
27/07:00pm 24.6 21.0 0.8 21 11.2 SSE 9 11 5 6 1016.2 1015.3 0.0
27/06:30pm 25.5 21.5 0.2 19 11.9 S 11 13 6 7 1015.8 1014.9 0.0
27/06:00pm 28.7 23.9 0.4 16 13.6 SSE 15 19 8 10 1015.5 1014.6 0.0
27/05:30pm 30.0 25.5 -0.4 14 14.6 SSE 13 20 7 11 1015.2 1014.3 0.0
27/05:00pm 30.6 24.8 0.1 14 14.8 S 20 26 11 14 1015.0 1014.2 0.0
27/04:30pm 31.0 25.7 -0.6 13 15.2 SSE 17 22 9 12 1015.0 1014.2 0.0
27/04:00pm 31.1 25.2 -0.5 13 15.2 SSE 20 30 11 16 1015.0 1014.2 0.0
27/03:30pm 30.8 25.1 -0.8 13 15.1 SE 19 30 10 16 1015.0 1014.2 0.0
27/03:00pm 31.2 25.7 0.6 14 15.0 SSE 19 30 10 16 1015.0 1014.2 0.0
27/02:30pm 31.4 26.1 -0.3 13 15.4 SSE 17 28 9 15 1015.3 1014.4 0.0
27/02:00pm 30.5 26.0 0.0 14 14.8 ESE 13 20 7 11 1015.7 1014.8 0.0
27/01:30pm 30.8 26.0 0.2 14 14.9 ESE 15 24 8 13 1016.1 1015.2 0.0
27/01:00pm 30.0 25.1 -0.4 14 14.6 ESE 15 22 8 12 1016.6 1015.7 0.0
27/12:30pm 29.6 24.0 0.2 15 14.2 SE 19 26 10 14 1017.2 1016.4 0.0
27/12:00pm 28.8 23.5 -0.4 15 13.9 SE 17 26 9 14 1017.7 1016.9 0.0
27/11:30am 28.8 23.5 -0.4 15 13.9 ESE 17 26 9 14 1018.0 1017.2 0.0
27/11:00am 27.6 22.3 -0.5 16 13.2 SE 17 24 9 13 1018.3 1017.5 0.0
27/10:30am 26.7 21.7 -1.2 16 12.9 ESE 15 20 8 11 1018.5 1017.7 0.0
27/10:00am 25.2 19.9 -0.8 18 11.9 ESE 17 22 9 12 1018.6 1017.8 0.0
27/09:30am 23.6 17.7 -0.6 20 11.0 ESE 20 24 11 13 1018.6 1017.8 0.0
27/09:00am 21.3 16.0 -0.6 23 9.8 ESE 17 24 9 13 1018.4 1017.6 0.0
27/08:30am 18.1 14.4 -0.2 29 8.0 ESE 9 13 5 7 1018.3 1017.5 0.0
27/08:27am 17.4 14.1 0.1 31 7.6 ESE 7 13 4 7 1018.2 1017.4 0.0
27/08:00am 12.3 9.5 -0.6 41 5.3 SSW 4 7 2 4 1018.1 1017.3 0.0
27/07:30am 11.4 8.6 -0.1 45 4.7 SSW 4 6 2 3 1017.8 1017.0 0.0
27/07:00am 11.2 7.9 -1.5 41 5.0 SSW 6 7 3 4 1017.6 1016.8 0.0
27/06:30am 11.6 8.7 -1.2 41 5.2 SSW 4 6 2 3 1017.3 1016.5 0.0
27/06:00am 11.5 8.4 0.0 45 4.7 SSW 6 7 3 4 1017.0 1016.1 0.0
27/05:30am 11.8 8.7 1.2 48 4.5 SSW 7 7 4 4 1016.9 1016.0 0.0
27/05:00am 12.5 10.5 0.0 42 5.2 CALM 0 0 0 0 1016.9 1016.0 0.0
27/04:30am 13.4 11.4 -0.3 39 5.7 CALM 0 0 0 0 1016.8 1015.9 0.0
27/04:00am 13.7 10.4 -1.5 35 6.2 S 6 7 3 4 1016.7 1015.8 0.0
27/03:30am 14.5 11.1 -0.8 35 6.4 S 7 7 4 4 1016.8 1015.9 0.0
27/03:00am 15.5 11.9 -2.4 29 7.3 SSE 7 9 4 5 1016.9 1016.0 0.0
27/02:30am 16.1 12.5 -2.4 28 7.6 ESE 7 9 4 5 1017.2 1016.4 0.0
27/02:00am 16.7 13.0 -2.9 26 8.0 SSE 7 9 4 5 1017.5 1016.7 0.0
27/01:30am 17.6 13.6 -2.6 25 8.4 SE 9 13 5 7 1017.5 1016.7 0.0
27/01:00am 19.1 13.9 -2.5 23 9.1 SSE 15 20 8 11 1017.4 1016.6 0.0
27/12:30am 19.1 13.9 -3.1 22 9.2 SSE 15 20 8 11 1017.6 1016.8 0.0
27/12:00am 19.7 14.4 -3.2 21 9.6 SSE 15 20 8 11 1017.6 1016.8 0.0
 
Date/Time
EST
Temp
°C
App
Temp
°C
Dew
Point
°C
Rel
Hum
%
Delta-T
°C
Wind Press
QNH
hPa
Press
MSL
hPa
Rain since
9am
mm
Dir  Spd
km/h
Gust
km/h
Spd
kts
Gust
kts
26/11:30pm 20.5 14.9 -3.2 20 10.0 SSE 17 22 9 12 1017.7 1016.9 0.0
26/11:00pm 21.9 15.7 -3.5 18 10.8 SSE 20 28 11 15 1017.7 1016.9 0.0
26/10:30pm 21.8 15.8 -2.8 19 10.6 SSE 19 22 10 12 1017.7 1016.9 0.0
26/10:00pm 22.2 16.6 -2.5 19 10.7 SSE 17 22 9 12 1017.6 1016.8 0.0
26/09:30pm 23.1 16.9 -3.3 17 11.4 SSE 20 26 11 14 1017.5 1016.7 0.0
26/09:00pm 23.1 17.5 -2.5 18 11.2 SSE 17 20 9 11 1017.4 1016.6 0.0
26/08:30pm 23.1 18.1 -1.1 20 10.9 S 15 20 8 11 1017.1 1016.2 0.0
26/08:00pm 22.0 17.6 0.5 24 9.9 S 13 15 7 8 1016.9 1016.0 0.0
26/07:30pm 22.7 18.4 1.1 24 10.1 S 13 15 7 8 1016.5 1015.6 0.0
26/07:00pm 23.6 19.6 0.7 22 10.7 S 11 13 6 7 1016.1 1015.2 0.0
26/06:30pm 25.6 21.3 1.0 20 11.7 S 13 15 7 8 1015.7 1014.8 0.0
26/06:00pm 28.2 22.7 0.9 17 13.2 S 19 26 10 14 1015.4 1014.5 0.0
26/05:30pm 29.4 23.8 1.0 16 13.9 S 20 28 11 15 1014.8 1014.0 0.0
26/05:00pm 30.3 24.8 1.7 16 14.2 S 20 26 11 14 1014.5 1013.7 0.0
26/04:30pm 30.5 25.0 1.9 16 14.3 SSE 20 32 11 17 1014.3 1013.5 0.0
26/04:00pm 31.4 26.1 1.7 15 14.9 S 19 28 10 15 1014.3 1013.5 0.0
26/03:30pm 31.0 25.4 1.4 15 14.7 SE 20 32 11 17 1014.4 1013.6 0.0
26/03:00pm 31.1 25.9 2.3 16 14.6 SSE 19 37 10 20 1014.4 1013.6 0.0
26/02:30pm 31.5 26.3 2.7 16 14.7 SSE 19 39 10 21 1014.7 1013.9 0.0
26/02:00pm 31.3 26.1 2.5 16 14.6 ESE 19 26 10 14 1015.0 1014.2 0.0
26/01:30pm 31.0 26.3 3.1 17 14.3 SSE 17 28 9 15 1015.7 1014.8 0.0
26/01:00pm 30.6 26.2 2.8 17 14.1 S 15 26 8 14 1016.5 1015.6 0.0
26/12:30pm 30.3 26.1 1.7 16 14.2 S 13 20 7 11 1017.1 1016.2 0.0
26/12:00pm 29.8 25.3 2.1 17 13.8 SE 15 22 8 12 1017.7 1016.9 0.0
26/11:30am 29.8 25.2 1.3 16 14.0 SE 15 24 8 13 1018.0 1017.2 0.0
26/11:00am 28.7 23.3 1.3 17 13.4 SE 19 28 10 15 1018.5 1017.7 0.0
26/10:30am 27.7 22.7 1.2 18 12.9 SE 17 20 9 11 1018.7 1017.9 0.0
26/10:00am 26.6 21.3 1.8 20 12.0 SE 19 24 10 13 1018.8 1018.0 0.0
26/09:30am 24.3 18.9 1.2 22 10.9 SE 19 26 10 14 1018.8 1018.0 0.0
26/09:00am 22.7 17.7 1.1 24 10.1 SE 17 24 9 13 1018.7 1017.9 0.0
26/08:30am 20.2 17.0 3.0 32 8.2 SSE 9 13 5 7 1018.6 1017.8 0.0

Other Formats:

Comma delimited format used in spreadsheet applications
http://www.bom.gov.au/fwo/IDQ60801/IDQ60801.94255.axf

JavaScript Object Notation format (JSON) in row-major order
http://www.bom.gov.au/fwo/IDQ60801/IDQ60801.94255.json